TimePDT,TemperatureF,Dew PointF,Humidity,Sea Level PressureIn,VisibilityMPH,Wind Direction,Wind SpeedMPH,Gust SpeedMPH,PrecipitationIn,Events,Conditions,WindDirDegrees,DateUTC
12:18 AM,51.8,48.2,88,30.01,9.0,South,3.5,-,N/A,,Mostly Cloudy,170,2013-07-30 07:18:00
12:53 AM,51.1,50.0,96,30.02,10.0,Calm,Calm,-,N/A,,Scattered Clouds,0,2013-07-30 07:53:00
1:53 AM,51.1,50.0,96,30.03,9.0,Calm,Calm,-,N/A,,Partly Cloudy,0,2013-07-30 08:53:00
2:53 AM,51.1,50.0,96,30.04,8.0,SW,3.5,-,N/A,,Scattered Clouds,220,2013-07-30 09:53:00
3:37 AM,51.8,50.0,94,30.05,4.0,SW,6.9,-,N/A,,Mostly Cloudy,220,2013-07-30 10:37:00
3:49 AM,51.8,51.8,100,30.05,2.0,SSW,5.8,-,N/A,,Overcast,210,2013-07-30 10:49:00
3:53 AM,52.0,51.1,97,30.05,2.5,South,4.6,-,N/A,,Overcast,190,2013-07-30 10:53:00
4:03 AM,51.8,51.8,100,30.05,4.0,South,3.5,-,N/A,,Overcast,180,2013-07-30 11:03:00
4:21 AM,51.8,51.8,100,30.06,1.8,Variable,3.5,-,N/A,,Overcast,0,2013-07-30 11:21:00
4:42 AM,51.8,51.8,100,30.06,0.8,Variable,3.5,-,N/A,,Mist,0,2013-07-30 11:42:00
4:53 AM,52.0,52.0,100,30.07,0.5,Variable,5.8,-,N/A,Fog,Fog,0,2013-07-30 11:53:00
5:53 AM,52.0,51.1,97,30.09,0.5,Calm,Calm,-,N/A,Fog,Fog,0,2013-07-30 12:53:00
6:53 AM,52.0,52.0,100,30.10,0.2,Calm,Calm,-,N/A,Fog,Fog,0,2013-07-30 13:53:00
7:53 AM,53.1,53.1,100,30.12,1.0,SSW,6.9,-,N/A,,Mist,210,2013-07-30 14:53:00
8:04 AM,53.6,53.6,100,30.12,2.5,SW,6.9,-,N/A,,Overcast,220,2013-07-30 15:04:00
8:22 AM,53.6,53.6,100,30.13,5.0,South,5.8,-,N/A,,Overcast,190,2013-07-30 15:22:00
8:53 AM,54.0,53.1,97,30.14,10.0,South,6.9,-,N/A,,Overcast,190,2013-07-30 15:53:00
9:53 AM,54.0,52.0,93,30.16,7.0,SSW,9.2,-,N/A,,Overcast,200,2013-07-30 16:53:00
10:53 AM,55.9,52.0,87,30.16,10.0,Variable,6.9,-,N/A,,Overcast,0,2013-07-30 17:53:00
11:10 AM,57.2,51.8,82,30.16,10.0,South,8.1,-,N/A,,Overcast,170,2013-07-30 18:10:00
11:53 AM,62.1,53.1,72,30.16,10.0,SSE,5.8,-,N/A,,Overcast,150,2013-07-30 18:53:00
12:06 PM,60.8,51.8,72,30.16,10.0,Variable,3.5,-,N/A,,Overcast,0,2013-07-30 19:06:00
12:53 PM,62.1,53.1,72,30.15,10.0,ESE,8.1,-,N/A,,Mostly Cloudy,120,2013-07-30 19:53:00
1:00 PM,64.4,53.6,68,30.15,10.0,Variable,6.9,-,N/A,,Scattered Clouds,0,2013-07-30 20:00:00
1:53 PM,61.0,53.1,75,30.15,10.0,Variable,4.6,-,N/A,,Clear,0,2013-07-30 20:53:00
2:53 PM,63.0,54.0,72,30.14,10.0,SE,6.9,-,N/A,,Clear,140,2013-07-30 21:53:00
3:53 PM,62.1,53.1,72,30.13,10.0,East,6.9,-,N/A,,Clear,90,2013-07-30 22:53:00
4:53 PM,64.9,54.0,68,30.12,10.0,SE,5.8,-,N/A,,Clear,140,2013-07-30 23:53:00
5:53 PM,59.0,52.0,78,30.11,10.0,ESE,4.6,-,N/A,,Clear,110,2013-07-31 00:53:00
6:53 PM,57.9,52.0,81,30.10,10.0,ESE,5.8,-,N/A,,Clear,120,2013-07-31 01:53:00
7:53 PM,55.9,52.0,87,30.10,10.0,SE,5.8,-,N/A,,Clear,130,2013-07-31 02:53:00
8:53 PM,54.0,52.0,93,30.11,10.0,SE,4.6,-,N/A,,Clear,130,2013-07-31 03:53:00
9:53 PM,51.1,48.9,92,30.12,10.0,Calm,Calm,-,N/A,,Clear,0,2013-07-31 04:53:00
10:53 PM,52.0,50.0,93,30.12,10.0,Calm,Calm,-,N/A,,Clear,0,2013-07-31 05:53:00